| time (UTC) | temp F | wind direction | speed MPH | gust MPH | rain 1hr in | rain 24hr in | rain mn in | humidity % | barometer mb |
| 20260510152021 | 84 | 0.0 | 2.0 | 0.00 | 0.00 | 0.00 | 46 | 1019.2 | |
| 20260510151021 | 85 | 0.0 | 2.0 | 0.00 | 0.00 | 0.00 | 46 | 1019.1 | |
| 20260510150021 | 85 | 0.0 | 2.0 | 0.00 | 0.00 | 0.00 | 45 | 1019.0 | |
| 20260510145021 | 83 | 0.0 | 2.0 | 0.00 | 0.00 | 0.00 | 51 | 1018.9 | |
| 20260510144021 | 83 | 0.0 | 3.0 | 0.00 | 0.00 | 0.00 | 48 | 1018.9 | |
| 20260510143021 | 82 | 0.0 | 1.0 | 0.00 | 0.00 | 0.00 | 53 | 1018.9 | |
| 20260510142021 | 83 | 0.0 | 1.0 | 0.00 | 0.00 | 0.00 | 52 | 1018.9 | |
| 20260510141021 | 81 | 0.0 | 2.0 | 0.00 | 0.00 | 0.00 | 54 | 1018.8 | |
| 20260510140021 | 80 | 0.0 | 1.0 | 0.00 | 0.00 | 0.00 | 57 | 1018.8 | |
| 20260510135047 | 80 | 0.0 | 1.0 | 0.00 | 0.00 | 0.00 | 60 | 1018.9 | |
| 20260510134521 | 80 | 0.0 | 1.0 | 0.00 | 0.00 | 0.00 | 60 | 1018.8 | |
| 20260510133521 | 80 | 0.0 | 2.0 | 0.00 | 0.00 | 0.00 | 60 | 1018.9 | |
| 20260510132521 | 79 | 0.0 | 2.0 | 0.00 | 0.00 | 0.00 | 60 | 1018.8 | |
| 20260510131541 | 77 | 0.0 | 3.0 | 0.00 | 0.00 | 0.00 | 66 | 1018.7 | |
| 20260510130521 | 77 | 0.0 | 1.0 | 0.00 | 0.00 | 0.00 | 67 | 1018.7 | |
| 20260510125521 | 75 | 0.0 | 0.0 | 0.00 | 0.00 | 0.00 | 72 | 1018.5 | |
| 20260510124542 | 71 | 0.0 | 2.0 | 0.00 | 0.00 | 0.00 | 77 | 1018.5 | |
| 20260510123521 | 71 | 0.0 | 0.0 | 0.00 | 0.00 | 0.00 | 81 | 1018.3 | |
| 20260510122521 | 69 | 0.0 | 0.0 | 0.00 | 0.00 | 0.00 | 84 | 1018.2 | |
| 20260510121521 | 66 | 0.0 | 1.0 | 0.00 | 0.00 | 0.00 | 93 | 1018.1 | |
| 20260510120522 | 62 | 0.0 | 0.0 | 0.00 | 0.00 | 0.00 | 98 | 1018.0 | |
| 20260510115521 | 61 | 0.0 | 1.0 | 0.00 | 0.00 | 0.00 | 98 | 1017.9 | |
| 20260510114540 | 60 | 0.0 | 0.0 | 0.00 | 0.00 | 0.00 | 97 | 1017.8 | |
| 20260510113522 | 60 | 0.0 | 0.0 | 0.00 | 0.00 | 0.00 | 97 | 1017.8 | |
| 20260510112541 | 60 | 0.0 | 0.0 | 0.00 | 0.00 | 0.00 | 97 | 1017.6 | |
| 20260510111521 | 60 | 0.0 | 0.0 | 0.00 | 0.00 | 0.00 | 97 | 1017.5 | |
| 20260510110602 | 59 | 0.0 | 0.0 | 0.00 | 0.00 | 0.00 | 97 | 1017.3 | |
| 20260510105521 | 59 | 0.0 | 0.0 | 0.00 | 0.00 | 0.00 | 97 | 1017.0 | |
| 20260510104540 | 59 | 0.0 | 0.0 | 0.00 | 0.00 | 0.00 | 97 | 1017.0 | |
| 20260510103522 | 59 | 0.0 | 0.0 | 0.00 | 0.00 | 0.00 | 97 | 1016.7 | |
| 20260510102521 | 59 | 0.0 | 0.0 | 0.00 | 0.00 | 0.00 | 97 | 1016.5 | |
| 20260510101520 | 59 | 0.0 | 0.0 | 0.00 | 0.00 | 0.00 | 97 | 1016.5 | |
| 20260510100521 | 59 | 0.0 | 0.0 | 0.00 | 0.00 | 0.00 | 96 | 1016.4 | |
| 20260510095521 | 60 | 0.0 | 0.0 | 0.00 | 0.00 | 0.00 | 96 | 1016.3 | |
| 20260510094521 | 60 | 0.0 | 0.0 | 0.00 | 0.00 | 0.00 | 96 | 1016.1 | |
| 20260510093521 | 60 | 0.0 | 0.0 | 0.00 | 0.00 | 0.00 | 96 | 1016.1 | |
| 20260510092521 | 60 | 0.0 | 0.0 | 0.00 | 0.00 | 0.00 | 96 | 1016.1 | |
| 20260510092021 | 60 | 0.0 | 0.0 | 0.00 | 0.00 | 0.00 | 96 | 1016.0 | |
| 20260510091021 | 60 | 0.0 | 0.0 | 0.00 | 0.00 | 0.00 | 96 | 1015.9 | |
| 20260510090021 | 60 | 0.0 | 0.0 | 0.00 | 0.00 | 0.00 | 96 | 1015.8 | |
| 20260510085021 | 61 | 0.0 | 0.0 | 0.00 | 0.00 | 0.00 | 95 | 1015.7 | |
| 20260510084021 | 61 | 0.0 | 0.0 | 0.00 | 0.00 | 0.00 | 95 | 1015.5 | |
| 20260510083021 | 61 | 0.0 | 0.0 | 0.00 | 0.00 | 0.00 | 95 | 1015.5 | |
| 20260510082021 | 61 | 0.0 | 0.0 | 0.00 | 0.00 | 0.00 | 95 | 1015.6 | |
| 20260510081021 | 61 | 0.0 | 0.0 | 0.00 | 0.00 | 0.00 | 95 | 1015.5 | |
| 20260510080041 | 61 | 0.0 | 0.0 | 0.00 | 0.00 | 0.00 | 95 | 1015.5 | |
| 20260510075021 | 61 | 0.0 | 1.0 | 0.00 | 0.00 | 0.00 | 95 | 1015.6 | |
| 20260510074021 | 62 | 0.0 | 0.0 | 0.00 | 0.00 | 0.00 | 95 | 1015.5 | |
| 20260510073021 | 62 | 0.0 | 0.0 | 0.00 | 0.00 | 0.00 | 95 | 1015.3 | |
| 20260510072041 | 62 | 0.0 | 1.0 | 0.00 | 0.00 | 0.00 | 95 | 1015.2 | |
| 20260510071021 | 61 | 0.0 | 0.0 | 0.00 | 0.00 | 0.00 | 95 | 1015.3 | |
| 20260510070021 | 61 | 0.0 | 0.0 | 0.00 | 0.00 | 0.00 | 94 | 1015.3 | |
| 20260510065021 | 61 | 0.0 | 0.0 | 0.00 | 0.00 | 0.00 | 94 | 1015.1 | |
| 20260510064020 | 61 | 0.0 | 0.0 | 0.00 | 0.00 | 0.00 | 94 | 1015.2 | |
| 20260510063021 | 62 | 0.0 | 0.0 | 0.00 | 0.00 | 0.00 | 94 | 1015.1 | |
| 20260510062021 | 62 | 0.0 | 0.0 | 0.00 | 0.00 | 0.00 | 93 | 1015.0 | |
| 20260510061101 | 62 | 0.0 | 0.0 | 0.00 | 0.00 | 0.00 | 93 | 1015.2 | |
| 20260510060021 | 62 | 0.0 | 0.0 | 0.00 | 0.00 | 0.00 | 93 | 1015.4 | |
| 20260510055020 | 62 | 0.0 | 0.0 | 0.00 | 0.00 | 0.00 | 92 | 1015.3 | |
| 20260510054244 | 62 | 0.0 | 0.0 | 0.00 | 0.00 | 0.00 | 92 | 1015.6 | |
| 20260510053022 | 63 | 0.0 | 0.0 | 0.00 | 0.00 | 0.00 | 92 | 1015.7 | |
| 20260510052102 | 63 | 0.0 | 0.0 | 0.00 | 0.00 | 0.00 | 92 | 1015.7 | |
| 20260510051021 | 63 | 0.0 | 0.0 | 0.00 | 0.00 | 0.00 | 92 | 1015.7 | |
| 20260510050022 | 63 | 0.0 | 0.0 | 0.00 | 0.00 | 0.00 | 92 | 1015.8 | |
| 20260510045042 | 63 | 0.0 | 0.0 | 0.00 | 0.00 | 0.00 | 92 | 1015.8 | |
| 20260510044021 | 63 | 0.0 | 0.0 | 0.00 | 0.00 | 0.00 | 92 | 1015.9 | |
| 20260510043021 | 63 | 0.0 | 0.0 | 0.00 | 0.00 | 0.00 | 92 | 1015.8 | |
| 20260510042021 | 63 | 0.0 | 0.0 | 0.00 | 0.00 | 0.00 | 91 | 1015.6 | |
| 20260510041021 | 63 | 0.0 | 0.0 | 0.00 | 0.00 | 0.00 | 91 | 1015.8 | |
| 20260510040023 | 64 | 0.0 | 0.0 | 0.00 | 0.00 | 0.00 | 91 | 1015.7 | |
| 20260510035022 | 64 | 0.0 | 0.0 | 0.00 | 0.00 | 0.00 | 91 | 1015.7 | |
| 20260510034020 | 64 | 0.0 | 0.0 | 0.00 | 0.00 | 0.00 | 91 | 1015.6 | |
| 20260510033021 | 64 | 0.0 | 0.0 | 0.00 | 0.00 | 0.00 | 90 | 1015.7 | |
| 20260510032022 | 64 | 0.0 | 0.0 | 0.00 | 0.00 | 0.00 | 91 | 1015.5 | |
| 20260510031022 | 64 | 0.0 | 0.0 | 0.00 | 0.00 | 0.00 | 90 | 1015.6 | |
| 20260510030043 | 64 | 0.0 | 0.0 | 0.00 | 0.00 | 0.00 | 90 | 1015.4 | |
| 20260510025021 | 65 | 0.0 | 0.0 | 0.00 | 0.00 | 0.00 | 90 | 1015.4 | |
| 20260510024020 | 65 | 0.0 | 0.0 | 0.00 | 0.00 | 0.00 | 90 | 1015.4 | |
| 20260510023022 | 65 | 0.0 | 0.0 | 0.00 | 0.00 | 0.00 | 90 | 1015.3 | |
| 20260510022022 | 65 | 0.0 | 0.0 | 0.00 | 0.00 | 0.00 | 89 | 1015.2 | |
| 20260510021020 | 65 | 0.0 | 0.0 | 0.00 | 0.00 | 0.00 | 89 | 1015.2 | |
| 20260510020044 | 66 | 0.0 | 0.0 | 0.00 | 0.00 | 0.00 | 88 | 1015.3 | |
| 20260510015022 | 66 | 0.0 | 0.0 | 0.00 | 0.00 | 0.00 | 88 | 1014.9 | |
| 20260510014022 | 66 | 0.0 | 0.0 | 0.00 | 0.00 | 0.00 | 87 | 1014.9 | |
| 20260510013022 | 67 | 0.0 | 0.0 | 0.00 | 0.00 | 0.00 | 86 | 1014.5 | |
| 20260510012020 | 67 | 0.0 | 0.0 | 0.00 | 0.00 | 0.00 | 85 | 1014.2 | |
| 20260510011022 | 68 | 0.0 | 0.0 | 0.00 | 0.00 | 0.00 | 84 | 1014.2 | |
| 20260510010022 | 68 | 0.0 | 0.0 | 0.00 | 0.00 | 0.00 | 83 | 1014.0 | |
| 20260510005102 | 69 | 0.0 | 0.0 | 0.00 | 0.00 | 0.00 | 82 | 1014.0 | |
| 20260510004022 | 69 | 0.0 | 0.0 | 0.00 | 0.00 | 0.00 | 81 | 1014.0 | |
| 20260510003022 | 70 | 0.0 | 0.0 | 0.00 | 0.00 | 0.00 | 80 | 1014.0 | |
| 20260510002022 | 70 | 0.0 | 0.0 | 0.00 | 0.00 | 0.00 | 80 | 1013.9 | |
| 20260510001022 | 70 | 0.0 | 2.0 | 0.00 | 0.00 | 0.00 | 79 | 1013.7 | |
| 20260510000022 | 71 | 0.0 | 0.0 | 0.00 | 0.00 | 0.00 | 78 | 1013.6 | |
| 20260509235042 | 71 | 0.0 | 1.0 | 0.00 | 0.00 | 0.00 | 78 | 1013.5 | |
| 20260509234022 | 71 | 0.0 | 0.0 | 0.00 | 0.00 | 0.00 | 77 | 1013.1 | |
| 20260509233042 | 72 | 0.0 | 1.0 | 0.00 | 0.00 | 0.00 | 77 | 1013.1 | |
| 20260509232022 | 72 | 0.0 | 1.0 | 0.00 | 0.00 | 0.00 | 76 | 1013.1 | |
| 20260509231022 | 72 | 0.0 | 1.0 | 0.00 | 0.00 | 0.00 | 75 | 1013.0 | |
| 20260509230137 | 72 | 0.0 | 3.0 | 0.00 | 0.00 | 0.00 | 75 | 1013.0 | |
| 20260509225022 | 73 | 0.0 | 2.0 | 0.00 | 0.00 | 0.00 | 74 | 1012.9 | |
| 20260509224022 | 73 | 45 | 1.0 | 4.0 | 0.00 | 0.00 | 0.00 | 74 | 1012.9 |
| 20260509223022 | 73 | 68 | 1.0 | 4.0 | 0.00 | 0.00 | 0.00 | 72 | 1013.0 |
| 20260509222144 | 74 | 0.0 | 2.0 | 0.00 | 0.00 | 0.00 | 72 | 1013.0 | |
| 20260509221022 | 74 | 45 | 1.0 | 3.0 | 0.00 | 0.00 | 0.00 | 71 | 1013.0 |
| 20260509220042 | 74 | 0.0 | 2.0 | 0.00 | 0.00 | 0.00 | 72 | 1012.9 | |
| 20260509215101 | 74 | 45 | 1.0 | 5.0 | 0.00 | 0.00 | 0.00 | 72 | 1012.9 |
| 20260509214022 | 74 | 0.0 | 2.0 | 0.00 | 0.00 | 0.00 | 71 | 1013.0 | |
| 20260509213040 | 75 | 68 | 1.0 | 3.0 | 0.00 | 0.00 | 0.00 | 69 | 1013.0 |
| 20260509212022 | 75 | 0.0 | 3.0 | 0.00 | 0.00 | 0.00 | 69 | 1012.9 | |
| 20260509211022 | 75 | 0.0 | 2.0 | 0.00 | 0.00 | 0.00 | 70 | 1012.7 | |
| 20260509210022 | 74 | 0.0 | 2.0 | 0.00 | 0.00 | 0.00 | 72 | 1012.7 | |
| 20260509205021 | 74 | 0.0 | 0.0 | 0.00 | 0.00 | 0.00 | 72 | 1013.0 | |
| 20260509204022 | 74 | 45 | 1.0 | 5.0 | 0.00 | 0.00 | 0.00 | 70 | 1012.8 |
| 20260509203022 | 74 | 0.0 | 3.0 | 0.00 | 0.00 | 0.00 | 70 | 1012.9 | |
| 20260509202055 | 74 | 0.0 | 2.0 | 0.00 | 0.00 | 0.00 | 70 | 1012.9 | |
| 20260509201522 | 74 | 0.0 | 1.0 | 0.00 | 0.00 | 0.00 | 70 | 1012.8 | |
| 20260509200542 | 74 | 45 | 1.0 | 3.0 | 0.00 | 0.00 | 0.00 | 69 | 1012.8 |
| 20260509195522 | 74 | 45 | 1.0 | 5.0 | 0.00 | 0.00 | 0.00 | 69 | 1012.9 |
| 20260509194522 | 74 | 45 | 1.0 | 5.0 | 0.00 | 0.00 | 0.00 | 69 | 1013.3 |
| 20260509193522 | 74 | 68 | 1.0 | 6.0 | 0.00 | 0.00 | 0.00 | 69 | 1013.2 |
| 20260509192522 | 74 | 45 | 1.0 | 5.0 | 0.00 | 0.00 | 0.00 | 67 | 1013.2 |
| 20260509191523 | 75 | 248 | 1.0 | 4.0 | 0.00 | 0.00 | 0.00 | 65 | 1013.5 |
| 20260509190522 | 76 | 45 | 1.0 | 4.0 | 0.00 | 0.00 | 0.00 | 62 | 1013.3 |
| 20260509185521 | 76 | 45 | 1.0 | 3.0 | 0.00 | 0.00 | 0.00 | 63 | 1013.6 |
| 20260509184521 | 75 | 45 | 1.0 | 5.0 | 0.00 | 0.00 | 0.00 | 64 | 1013.7 |
| 20260509183521 | 75 | 293 | 1.0 | 7.0 | 0.00 | 0.00 | 0.00 | 63 | 1013.7 |
| 20260509182522 | 76 | 68 | 1.0 | 4.0 | 0.00 | 0.00 | 0.00 | 60 | 1013.8 |
| 20260509181521 | 76 | 45 | 2.0 | 8.0 | 0.00 | 0.00 | 0.00 | 61 | 1013.6 |
| 20260509180521 | 77 | 45 | 1.0 | 3.0 | 0.00 | 0.00 | 0.00 | 59 | 1014.1 |
| 20260509175521 | 77 | 45 | 1.0 | 5.0 | 0.00 | 0.00 | 0.00 | 59 | 1014.2 |
| 20260509174521 | 76 | 0.0 | 2.0 | 0.00 | 0.00 | 0.00 | 60 | 1014.4 | |
| 20260509173521 | 75 | 45 | 1.0 | 6.0 | 0.00 | 0.00 | 0.00 | 61 | 1014.6 |
| 20260509172521 | 75 | 0.0 | 2.0 | 0.00 | 0.00 | 0.00 | 62 | 1014.6 | |
| 20260509171521 | 75 | 45 | 1.0 | 6.0 | 0.00 | 0.00 | 0.00 | 62 | 1014.9 |
| 20260509170541 | 75 | 45 | 1.0 | 4.0 | 0.00 | 0.00 | 0.00 | 62 | 1014.9 |
| 20260509165521 | 74 | 90 | 1.0 | 4.0 | 0.00 | 0.00 | 0.00 | 63 | 1015.2 |
| 20260509164521 | 74 | 45 | 1.0 | 6.0 | 0.00 | 0.00 | 0.00 | 63 | 1015.3 |
| 20260509163521 | 74 | 45 | 3.0 | 8.0 | 0.00 | 0.00 | 0.00 | 61 | 1015.3 |
| 20260509162521 | 75 | 0.0 | 3.0 | 0.00 | 0.00 | 0.00 | 62 | 1015.2 | |
| 20260509161521 | 74 | 225 | 1.0 | 4.0 | 0.00 | 0.00 | 0.00 | 63 | 1015.2 |
| 20260509160521 | 73 | 45 | 2.0 | 8.0 | 0.00 | 0.00 | 0.00 | 65 | 1015.3 |
| 20260509155521 | 73 | 45 | 1.0 | 4.0 | 0.00 | 0.00 | 0.00 | 64 | 1015.4 |
| 20260509154521 | 74 | 248 | 1.0 | 5.0 | 0.00 | 0.00 | 0.00 | 63 | 1015.4 |
| 20260509153521 | 73 | 45 | 1.0 | 7.0 | 0.00 | 0.00 | 0.00 | 64 | 1015.4 |